createdAt,value
2023-03-10T00:00:18.191Z,7.39
2023-03-10T00:02:49.377Z,7.40
2023-03-10T00:05:17.475Z,7.83
2023-03-10T00:07:44.504Z,7.76
2023-03-10T00:10:13.783Z,7.63
2023-03-10T00:12:40.732Z,7.79
2023-03-10T00:15:08.297Z,7.82
2023-03-10T00:17:35.054Z,7.98
2023-03-10T00:20:01.819Z,7.87
2023-03-10T00:22:28.366Z,8.01
2023-03-10T00:24:54.904Z,8.00
2023-03-10T00:27:21.462Z,7.84
2023-03-10T00:29:51.506Z,7.73
2023-03-10T00:32:18.465Z,7.60
2023-03-10T00:34:45.026Z,7.51
2023-03-10T00:37:11.562Z,7.79
2023-03-10T00:39:38.081Z,7.61
2023-03-10T00:42:04.734Z,7.73
2023-03-10T00:44:31.245Z,7.66
2023-03-10T00:46:57.773Z,7.84
2023-03-10T00:49:24.337Z,7.92
2023-03-10T00:51:50.878Z,7.95
2023-03-10T00:54:17.380Z,8.24
2023-03-10T00:56:43.914Z,8.29
2023-03-10T00:59:12.008Z,8.18
2023-03-10T01:01:41.342Z,8.27
2023-03-10T01:04:12.029Z,8.30
2023-03-10T01:06:39.063Z,8.20
2023-03-10T01:09:06.547Z,8.13
2023-03-10T01:11:33.928Z,8.39
2023-03-10T01:14:03.079Z,8.39
2023-03-10T01:16:30.312Z,8.33
2023-03-10T01:18:57.936Z,8.51
2023-03-10T01:21:27.950Z,8.53
2023-03-10T01:23:54.887Z,8.50
2023-03-10T01:26:21.769Z,8.48
2023-03-10T01:28:49.321Z,8.50
2023-03-10T01:31:16.787Z,8.61
2023-03-10T01:33:44.407Z,8.53
2023-03-10T01:36:19.533Z,8.54
2023-03-10T01:38:47.431Z,8.44
2023-03-10T01:41:14.258Z,8.54
2023-03-10T01:43:47.539Z,8.43
2023-03-10T01:46:42.166Z,8.43
2023-03-10T01:49:26.180Z,8.46
2023-03-10T01:52:02.111Z,8.55
2023-03-10T01:54:37.078Z,8.53
2023-03-10T01:57:03.846Z,8.55
2023-03-10T01:59:30.364Z,8.66
2023-03-10T02:01:57.645Z,8.44
2023-03-10T02:04:35.555Z,8.30
2023-03-10T02:07:05.015Z,8.23
2023-03-10T02:09:32.922Z,8.34
2023-03-10T02:12:00.704Z,8.37
2023-03-10T02:14:27.294Z,8.38
2023-03-10T02:16:53.909Z,8.54
2023-03-10T02:19:48.930Z,8.83
2023-03-10T02:22:17.200Z,8.91
2023-03-10T02:25:16.324Z,9.09
2023-03-10T02:27:43.059Z,9.12
2023-03-10T02:30:40.522Z,9.26
2023-03-10T02:33:12.559Z,9.28
2023-03-10T02:35:39.370Z,9.36
2023-03-10T02:38:06.043Z,9.52
2023-03-10T02:40:43.600Z,9.55
2023-03-10T02:43:22.395Z,9.51
2023-03-10T02:45:51.079Z,9.55
2023-03-10T02:48:28.414Z,9.52
2023-03-10T02:50:56.856Z,9.52
2023-03-10T02:53:26.340Z,9.47
2023-03-10T02:55:53.384Z,9.42
2023-03-10T02:58:20.882Z,9.32
2023-03-10T03:00:49.285Z,9.25
2023-03-10T03:03:18.375Z,9.12
2023-03-10T03:05:45.338Z,9.11
2023-03-10T03:08:12.703Z,9.00
2023-03-10T03:10:40.663Z,8.96
2023-03-10T03:13:07.378Z,8.86
2023-03-10T03:15:34.388Z,8.82
2023-03-10T03:18:02.021Z,8.87
2023-03-10T03:20:30.367Z,8.79
2023-03-10T03:22:58.250Z,8.77
2023-03-10T03:25:27.822Z,8.90
2023-03-10T03:27:55.039Z,8.78
2023-03-10T03:30:24.867Z,8.75
2023-03-10T03:32:52.588Z,8.82
2023-03-10T03:35:28.667Z,8.76
2023-03-10T03:37:55.931Z,8.76
2023-03-10T03:40:23.972Z,8.81
2023-03-10T03:42:53.260Z,8.76
2023-03-10T03:45:25.616Z,8.91
2023-03-10T03:47:52.447Z,8.92
2023-03-10T03:50:21.189Z,8.96
2023-03-10T03:52:48.206Z,8.94
2023-03-10T03:55:16.381Z,8.83
2023-03-10T03:57:44.910Z,8.82
2023-03-10T04:00:17.401Z,8.81
2023-03-10T04:02:44.003Z,8.83
2023-03-10T04:05:10.801Z,8.77
2023-03-10T04:07:40.080Z,9.00
2023-03-10T04:10:09.784Z,9.02
2023-03-10T04:12:36.411Z,9.06
2023-03-10T04:15:03.180Z,9.05
2023-03-10T04:17:29.747Z,9.05
2023-03-10T04:20:06.540Z,9.07
2023-03-10T04:22:34.555Z,9.00
2023-03-10T04:25:01.107Z,9.04
2023-03-10T04:27:27.636Z,8.99
2023-03-10T04:29:54.165Z,9.11
2023-03-10T04:32:20.719Z,9.24
2023-03-10T04:34:47.310Z,9.36
2023-03-10T04:37:14.057Z,9.32
2023-03-10T04:39:40.749Z,9.27
2023-03-10T04:42:07.684Z,9.28
2023-03-10T04:44:34.292Z,9.26
2023-03-10T04:47:01.251Z,9.19
2023-03-10T04:49:28.169Z,9.26
2023-03-10T04:51:54.748Z,9.20
2023-03-10T04:54:21.424Z,9.30
2023-03-10T04:56:47.956Z,9.33
2023-03-10T04:59:14.534Z,9.28
2023-03-10T05:01:41.215Z,9.34
2023-03-10T05:04:07.877Z,9.50
2023-03-10T05:06:34.456Z,9.47
2023-03-10T05:09:04.096Z,9.47
2023-03-10T05:11:31.805Z,9.51
2023-03-10T05:13:58.399Z,9.41
2023-03-10T05:16:25.195Z,9.39
2023-03-10T05:18:51.811Z,9.33
2023-03-10T05:21:18.549Z,9.25
2023-03-10T05:23:45.131Z,9.31
2023-03-10T05:26:11.946Z,9.25
2023-03-10T05:28:38.675Z,9.27
2023-03-10T05:31:10.593Z,9.36
2023-03-10T05:33:37.191Z,9.32
2023-03-10T05:36:06.009Z,9.33
2023-03-10T05:38:32.937Z,9.40
2023-03-10T05:40:59.496Z,9.22
2023-03-10T05:43:26.032Z,9.20
2023-03-10T05:45:58.926Z,9.16
2023-03-10T05:48:26.491Z,9.09
2023-03-10T05:50:59.173Z,9.15
2023-03-10T05:53:25.741Z,9.32
2023-03-10T05:55:53.530Z,9.35
2023-03-10T05:58:20.249Z,9.37
2023-03-10T06:00:47.040Z,9.39
2023-03-10T06:03:13.598Z,9.48
2023-03-10T06:05:40.226Z,9.48
2023-03-10T06:08:06.833Z,9.58
2023-03-10T06:10:33.628Z,9.59
2023-03-10T06:13:00.170Z,9.63
2023-03-10T06:15:26.884Z,9.63
2023-03-10T06:17:53.611Z,9.75
2023-03-10T06:20:20.148Z,9.76
2023-03-10T06:22:46.675Z,9.81
2023-03-10T06:25:13.971Z,9.85
2023-03-10T06:27:40.510Z,9.86
2023-03-10T06:30:07.617Z,9.90
2023-03-10T06:32:35.039Z,9.95
2023-03-10T06:35:01.782Z,10.01
2023-03-10T06:37:28.362Z,10.07
2023-03-10T06:39:54.946Z,10.04
2023-03-10T06:42:21.488Z,10.11
2023-03-10T06:44:49.292Z,10.15
2023-03-10T06:47:15.965Z,10.21
2023-03-10T06:49:42.894Z,10.20
2023-03-10T06:52:09.422Z,10.18
2023-03-10T06:54:36.480Z,10.21
2023-03-10T06:57:04.795Z,10.21
2023-03-10T06:59:32.715Z,10.21
2023-03-10T07:01:59.248Z,10.24
2023-03-10T07:04:25.877Z,10.21
2023-03-10T07:06:52.625Z,10.18
2023-03-10T07:09:19.140Z,10.16
2023-03-10T07:11:45.745Z,10.19
2023-03-10T07:14:12.860Z,10.13
2023-03-10T07:16:40.366Z,10.19
2023-03-10T07:19:06.960Z,10.14
2023-03-10T07:21:33.478Z,10.17
2023-03-10T07:24:00.136Z,10.24
2023-03-10T07:26:27.265Z,10.27
2023-03-10T07:28:54.393Z,10.32
2023-03-10T07:31:21.249Z,10.41
2023-03-10T07:33:49.333Z,10.50
2023-03-10T07:36:18.547Z,10.56
2023-03-10T07:38:45.504Z,10.74
2023-03-10T07:41:18.174Z,10.68
2023-03-10T07:43:45.100Z,10.75
2023-03-10T07:46:14.353Z,10.81
2023-03-10T07:48:41.042Z,10.82
2023-03-10T07:51:08.330Z,10.80
2023-03-10T07:53:35.417Z,10.87
2023-03-10T07:56:10.308Z,11.00
2023-03-10T07:58:38.044Z,11.02
2023-03-10T08:01:05.898Z,10.95
2023-03-10T08:03:34.220Z,10.98
2023-03-10T08:06:02.492Z,11.08
2023-03-10T08:08:29.168Z,11.12
2023-03-10T08:11:06.736Z,11.14
2023-03-10T08:13:33.782Z,11.21
2023-03-10T08:16:01.330Z,11.26
2023-03-10T08:18:29.564Z,11.34
2023-03-10T08:20:56.758Z,11.39
2023-03-10T08:23:24.306Z,11.47
2023-03-10T08:25:50.940Z,11.52
2023-03-10T08:28:17.654Z,11.62
2023-03-10T08:31:02.548Z,11.59
2023-03-10T08:33:30.796Z,11.54
2023-03-10T08:36:16.284Z,11.60
2023-03-10T08:38:44.016Z,11.60
2023-03-10T08:41:13.623Z,11.57
2023-03-10T08:43:40.842Z,11.55
2023-03-10T08:46:08.843Z,11.61
2023-03-10T08:48:36.067Z,11.53
2023-03-10T08:51:02.759Z,11.59
2023-03-10T08:53:29.455Z,11.64
2023-03-10T08:55:55.964Z,11.64
2023-03-10T08:58:23.556Z,11.71
2023-03-10T09:00:50.168Z,11.78
2023-03-10T09:03:17.240Z,11.81
2023-03-10T09:05:43.849Z,11.91
2023-03-10T09:08:10.868Z,12.01
2023-03-10T09:10:38.211Z,12.08
2023-03-10T09:13:13.688Z,12.16
2023-03-10T09:15:41.625Z,12.15
2023-03-10T09:18:13.469Z,12.17
2023-03-10T09:20:42.813Z,12.21
2023-03-10T09:23:11.413Z,12.23
2023-03-10T09:25:40.378Z,12.30
2023-03-10T09:28:10.537Z,12.31
2023-03-10T09:30:39.276Z,12.41
2023-03-10T09:33:08.057Z,12.47
2023-03-10T09:35:35.946Z,12.53
2023-03-10T09:38:03.998Z,12.39
2023-03-10T09:40:32.666Z,12.43
2023-03-10T09:43:05.276Z,12.27
2023-03-10T09:46:04.906Z,12.21
2023-03-10T09:48:36.271Z,12.21
2023-03-10T09:51:14.225Z,12.15
2023-03-10T09:54:06.442Z,12.24
2023-03-10T09:56:35.593Z,12.38
2023-03-10T09:59:12.758Z,12.41
2023-03-10T10:01:44.876Z,12.55
2023-03-10T10:04:15.941Z,12.58
2023-03-10T10:06:47.938Z,12.77
2023-03-10T10:09:23.259Z,12.94
2023-03-10T10:11:49.923Z,12.89
2023-03-10T10:14:31.050Z,13.10
2023-03-10T10:17:09.989Z,13.36
2023-03-10T10:19:39.810Z,13.76
2023-03-10T10:22:24.997Z,13.59
2023-03-10T10:25:09.769Z,13.96
2023-03-10T10:27:37.432Z,14.26
2023-03-10T10:30:36.478Z,14.17
2023-03-10T10:33:06.606Z,14.16
2023-03-10T10:35:54.840Z,13.96
2023-03-10T10:38:27.360Z,13.79
2023-03-10T10:41:08.148Z,13.62
2023-03-10T10:43:43.535Z,13.65
2023-03-10T10:46:12.469Z,13.50
2023-03-10T10:48:41.040Z,13.54
2023-03-10T10:51:29.352Z,13.59
2023-03-10T10:53:57.857Z,13.51
2023-03-10T10:56:25.247Z,13.58
2023-03-10T10:59:21.443Z,13.45
2023-03-10T11:01:54.255Z,13.56
2023-03-10T11:04:23.097Z,13.76
2023-03-10T11:06:51.604Z,13.89
2023-03-10T11:09:20.826Z,13.62
2023-03-10T11:12:12.646Z,13.58
2023-03-10T11:15:10.003Z,13.48
2023-03-10T11:17:55.020Z,13.65
2023-03-10T11:20:30.300Z,13.64
2023-03-10T11:23:30.267Z,13.53
2023-03-10T11:26:01.709Z,13.33
2023-03-10T11:28:52.585Z,13.47
2023-03-10T11:31:45.050Z,13.67
2023-03-10T11:34:30.572Z,13.56
2023-03-10T11:36:57.459Z,13.69
2023-03-10T11:40:07.496Z,13.74
2023-03-10T11:43:00.552Z,13.94
2023-03-10T11:45:39.177Z,13.78
2023-03-10T11:48:26.933Z,13.72
2023-03-10T11:50:59.715Z,14.09
2023-03-10T11:53:32.411Z,13.93
2023-03-10T11:56:00.614Z,13.91
2023-03-10T11:58:40.741Z,14.04
2023-03-10T12:01:11.819Z,14.11
2023-03-10T12:03:50.705Z,14.54
2023-03-10T12:06:26.945Z,14.16
2023-03-10T12:08:56.075Z,14.14
2023-03-10T12:11:27.122Z,14.22
2023-03-10T12:13:59.542Z,14.19
2023-03-10T12:16:29.870Z,14.23
2023-03-10T12:18:57.046Z,14.47
2023-03-10T12:21:31.801Z,14.71
2023-03-10T12:24:01.224Z,14.41
2023-03-10T12:26:40.033Z,14.36
2023-03-10T12:29:33.754Z,14.13
2023-03-10T12:32:01.044Z,13.97
2023-03-10T12:34:32.118Z,13.90
2023-03-10T12:37:10.834Z,13.64
2023-03-10T12:39:44.266Z,13.65
2023-03-10T12:42:34.509Z,13.63
2023-03-10T12:45:29.315Z,13.72
2023-03-10T12:48:12.316Z,13.95
2023-03-10T12:50:44.588Z,14.15
2023-03-10T12:53:11.039Z,14.14
2023-03-10T12:55:41.938Z,14.00
2023-03-10T12:58:27.520Z,14.06
2023-03-10T13:01:01.029Z,14.13
2023-03-10T13:03:46.381Z,14.51
2023-03-10T13:06:20.754Z,14.68
2023-03-10T13:08:50.688Z,14.74
2023-03-10T13:11:30.189Z,14.87
2023-03-10T13:14:01.763Z,15.00
2023-03-10T13:16:29.608Z,14.68
2023-03-10T13:18:56.321Z,14.63
2023-03-10T13:21:29.780Z,14.48
2023-03-10T13:23:58.289Z,14.49
2023-03-10T13:26:26.976Z,14.31
2023-03-10T13:28:57.156Z,14.24
2023-03-10T13:31:30.915Z,14.33
2023-03-10T13:34:11.408Z,14.48
2023-03-10T13:36:40.061Z,14.78
2023-03-10T13:39:25.606Z,14.78
2023-03-10T13:41:56.561Z,14.95
2023-03-10T13:44:27.145Z,15.11
2023-03-10T13:47:01.800Z,15.12
2023-03-10T13:49:34.299Z,15.00
2023-03-10T13:52:03.956Z,15.09
2023-03-10T13:54:35.351Z,15.41
2023-03-10T13:57:25.401Z,15.28
2023-03-10T13:59:54.725Z,15.49
2023-03-10T14:02:28.208Z,15.47
2023-03-10T14:04:55.354Z,15.32
2023-03-10T14:07:24.468Z,15.30
2023-03-10T14:10:07.740Z,15.17
2023-03-10T14:12:40.523Z,14.86
2023-03-10T14:15:19.094Z,14.60
2023-03-10T14:18:08.546Z,14.43
2023-03-10T14:20:37.372Z,14.15
2023-03-10T14:23:19.037Z,13.88
2023-03-10T14:25:46.871Z,13.19
2023-03-10T14:28:17.843Z,12.30
2023-03-10T14:30:45.234Z,11.99
2023-03-10T14:33:13.684Z,11.39
2023-03-10T14:35:40.560Z,10.72
2023-03-10T14:38:07.817Z,10.41
2023-03-10T14:40:39.761Z,10.05
2023-03-10T14:43:06.360Z,9.69
2023-03-10T14:45:38.348Z,9.54
2023-03-10T14:48:14.910Z,9.22
2023-03-10T14:50:41.564Z,9.30
2023-03-10T14:53:12.335Z,9.21
2023-03-10T14:55:40.451Z,9.12
2023-03-10T14:58:08.003Z,9.18
2023-03-10T15:00:35.316Z,9.15
2023-03-10T15:03:01.850Z,9.12
2023-03-10T15:05:46.867Z,9.11
2023-03-10T15:08:14.989Z,9.08
2023-03-10T15:10:43.477Z,9.68
2023-03-10T15:13:15.942Z,10.11
2023-03-10T15:15:45.260Z,10.65
2023-03-10T15:18:14.561Z,11.28
2023-03-10T15:20:41.363Z,11.84
2023-03-10T15:23:08.033Z,12.32
2023-03-10T15:25:34.656Z,12.56
2023-03-10T15:28:02.304Z,12.60
2023-03-10T15:30:35.406Z,13.06
2023-03-10T15:33:02.719Z,13.16
2023-03-10T15:35:29.835Z,13.48
2023-03-10T15:37:57.380Z,13.83
2023-03-10T15:40:29.964Z,13.41
2023-03-10T15:42:57.747Z,13.76
2023-03-10T15:45:26.737Z,14.27
2023-03-10T15:47:53.702Z,13.98
2023-03-10T15:50:21.527Z,13.92
2023-03-10T15:52:54.062Z,14.13
2023-03-10T15:55:21.295Z,14.18
2023-03-10T15:57:49.888Z,13.98
2023-03-10T16:00:19.631Z,13.32
2023-03-10T16:02:47.088Z,13.25
2023-03-10T16:05:14.144Z,12.35
2023-03-10T16:07:40.842Z,12.35
2023-03-10T16:10:10.139Z,11.69
2023-03-10T16:12:36.629Z,11.22
2023-03-10T16:15:03.412Z,11.22
2023-03-10T16:17:30.208Z,10.97
2023-03-10T16:19:56.792Z,10.64
2023-03-10T16:22:23.386Z,10.79
2023-03-10T16:24:50.042Z,10.73
2023-03-10T16:27:16.863Z,10.64
2023-03-10T16:29:43.510Z,10.62
2023-03-10T16:32:11.944Z,10.55
2023-03-10T16:34:38.553Z,10.52
2023-03-10T16:37:08.067Z,10.84
2023-03-10T16:39:36.503Z,10.93
2023-03-10T16:42:03.317Z,10.82
2023-03-10T16:44:29.866Z,10.61
2023-03-10T16:46:56.381Z,10.58
2023-03-10T16:49:22.969Z,10.45
2023-03-10T16:51:49.560Z,10.39
2023-03-10T16:54:19.028Z,10.35
2023-03-10T16:56:47.619Z,10.20
2023-03-10T16:59:18.529Z,10.20
2023-03-10T17:01:45.632Z,10.16
2023-03-10T17:04:12.815Z,10.22
2023-03-10T17:06:39.672Z,10.22
2023-03-10T17:09:08.905Z,10.06
2023-03-10T17:11:45.266Z,10.00
2023-03-10T17:14:14.239Z,9.79
2023-03-10T17:16:41.806Z,9.84
2023-03-10T17:19:13.605Z,9.85
2023-03-10T17:21:45.725Z,9.69
2023-03-10T17:24:14.205Z,9.62
2023-03-10T17:26:40.892Z,9.48
2023-03-10T17:29:07.906Z,9.53
2023-03-10T17:31:34.526Z,9.55
2023-03-10T17:34:04.205Z,9.42
2023-03-10T17:36:30.906Z,9.40
2023-03-10T17:38:59.840Z,9.44
2023-03-10T17:41:28.161Z,9.35
2023-03-10T17:43:54.979Z,9.31
2023-03-10T17:46:26.399Z,9.22
2023-03-10T17:48:53.728Z,9.09
2023-03-10T17:51:26.758Z,9.07
2023-03-10T17:53:54.293Z,9.05
2023-03-10T17:56:27.553Z,9.03
2023-03-10T17:59:03.011Z,8.99
2023-03-10T18:01:30.960Z,8.94
2023-03-10T18:04:02.447Z,8.89
2023-03-10T18:06:32.081Z,8.82
2023-03-10T18:09:04.729Z,8.62
2023-03-10T18:11:33.955Z,8.73
2023-03-10T18:14:03.898Z,8.81
2023-03-10T18:16:41.235Z,8.74
2023-03-10T18:19:28.967Z,8.64
2023-03-10T18:22:04.577Z,8.47
2023-03-10T18:24:34.377Z,8.62
2023-03-10T18:27:29.445Z,8.57
2023-03-10T18:30:04.696Z,8.66
2023-03-10T18:32:33.462Z,8.60
2023-03-10T18:35:02.583Z,8.56
2023-03-10T18:37:52.915Z,8.48
2023-03-10T18:40:58.522Z,8.56
2023-03-10T18:43:37.273Z,8.56
2023-03-10T18:46:41.848Z,8.48
2023-03-10T18:49:21.648Z,8.64
2023-03-10T18:51:52.899Z,8.61
2023-03-10T18:54:28.883Z,8.65
2023-03-10T18:57:08.660Z,8.59
2023-03-10T19:03:37.694Z,8.62
2023-03-10T19:07:21.808Z,8.51
2023-03-10T19:09:11.812Z,8.61
2023-03-10T19:15:11.112Z,8.53
2023-03-10T19:17:50.551Z,8.71
2023-03-10T19:20:18.196Z,8.72
2023-03-10T19:23:02.654Z,8.70
2023-03-10T19:25:29.413Z,8.79
2023-03-10T19:28:00.596Z,8.83
2023-03-10T19:30:27.516Z,8.85
2023-03-10T19:32:54.239Z,8.86
2023-03-10T19:35:21.071Z,8.78
2023-03-10T19:37:47.903Z,8.82
2023-03-10T19:40:18.442Z,8.78
2023-03-10T19:42:49.443Z,8.74
2023-03-10T19:45:17.997Z,8.74
2023-03-10T19:47:48.517Z,8.75
2023-03-10T19:50:17.137Z,8.73
2023-03-10T19:52:45.764Z,8.71
2023-03-10T19:55:19.860Z,8.70
2023-03-10T19:57:50.819Z,8.73
2023-03-10T20:00:24.645Z,8.69
2023-03-10T20:02:55.034Z,8.63
2023-03-10T20:05:25.475Z,8.64
2023-03-10T20:07:52.185Z,8.58
2023-03-10T20:10:18.763Z,8.48
2023-03-10T20:12:47.190Z,8.47
2023-03-10T20:15:14.071Z,8.38
2023-03-10T20:17:40.659Z,8.23
2023-03-10T20:20:10.261Z,8.35
2023-03-10T20:22:39.609Z,8.38
2023-03-10T20:25:08.209Z,8.39
2023-03-10T20:27:34.984Z,8.40
2023-03-10T20:30:01.742Z,8.34
2023-03-10T20:32:28.474Z,8.33
2023-03-10T20:34:55.146Z,8.30
2023-03-10T20:37:21.778Z,8.30
2023-03-10T20:39:48.277Z,8.21
2023-03-10T20:42:14.786Z,8.03
2023-03-10T20:44:41.602Z,7.94
2023-03-10T20:47:08.924Z,7.90
2023-03-10T20:49:35.451Z,7.77
2023-03-10T20:52:02.510Z,7.68
2023-03-10T20:54:29.058Z,7.63
2023-03-10T20:56:55.556Z,7.63
2023-03-10T20:59:22.131Z,7.59
2023-03-10T21:01:48.704Z,7.59
2023-03-10T21:04:15.215Z,7.56
2023-03-10T21:06:41.754Z,7.57
2023-03-10T21:09:08.329Z,7.45
2023-03-10T21:11:35.716Z,7.52
2023-03-10T21:14:02.402Z,7.48
2023-03-10T21:16:29.021Z,7.38
2023-03-10T21:18:55.936Z,7.40
2023-03-10T21:21:22.490Z,7.33
2023-03-10T21:23:49.430Z,7.27
2023-03-10T21:26:19.101Z,7.16
2023-03-10T21:28:45.735Z,7.18
2023-03-10T21:31:13.225Z,7.10
2023-03-10T21:33:41.808Z,7.14
2023-03-10T21:36:13.661Z,7.07
2023-03-10T21:38:40.341Z,7.09
2023-03-10T21:41:08.242Z,7.12
2023-03-10T21:43:35.414Z,7.05
2023-03-10T21:46:02.109Z,7.05
2023-03-10T21:48:28.684Z,7.02
2023-03-10T21:50:55.171Z,7.06
2023-03-10T21:53:21.729Z,6.98
2023-03-10T21:55:48.330Z,6.89
2023-03-10T21:58:14.825Z,6.77
2023-03-10T22:00:41.708Z,6.87
2023-03-10T22:03:08.273Z,6.80
2023-03-10T22:05:34.825Z,6.77
2023-03-10T22:08:01.377Z,6.68
2023-03-10T22:10:28.026Z,6.67
2023-03-10T22:12:54.722Z,6.63
2023-03-10T22:15:24.802Z,6.62
2023-03-10T22:17:52.569Z,6.56
2023-03-10T22:20:23.372Z,6.57
2023-03-10T22:22:49.996Z,6.50
2023-03-10T22:25:17.106Z,6.44
2023-03-10T22:27:44.843Z,6.43
2023-03-10T22:30:14.085Z,6.43
2023-03-10T22:32:41.100Z,6.42
2023-03-10T22:35:09.883Z,6.35
2023-03-10T22:37:40.175Z,6.33
2023-03-10T22:40:10.190Z,6.17
2023-03-10T22:42:40.444Z,6.18
2023-03-10T22:45:16.607Z,6.10
2023-03-10T22:47:43.603Z,6.15
2023-03-10T22:50:14.352Z,6.12
2023-03-10T22:52:40.962Z,6.13
2023-03-10T22:55:07.846Z,6.05
2023-03-10T22:57:34.370Z,6.08
2023-03-10T23:00:00.867Z,6.07
2023-03-10T23:02:27.467Z,6.06
2023-03-10T23:04:54.016Z,5.90
2023-03-10T23:07:20.544Z,5.89
2023-03-10T23:09:47.078Z,5.84
2023-03-10T23:12:13.645Z,5.87
2023-03-10T23:14:40.171Z,5.75
2023-03-10T23:17:08.350Z,5.74
2023-03-10T23:19:35.701Z,5.65
2023-03-10T23:22:02.319Z,5.48
2023-03-10T23:24:28.979Z,5.56
2023-03-10T23:26:55.518Z,5.51
2023-03-10T23:29:22.174Z,5.51
2023-03-10T23:31:49.106Z,5.50
2023-03-10T23:34:15.740Z,5.45
2023-03-10T23:36:42.249Z,5.36
2023-03-10T23:39:11.397Z,5.16
2023-03-10T23:41:37.908Z,4.68
2023-03-10T23:44:04.421Z,4.21
2023-03-10T23:46:31.926Z,3.92
2023-03-10T23:48:58.445Z,3.68
2023-03-10T23:51:25.430Z,3.56
2023-03-10T23:53:51.986Z,3.41
2023-03-10T23:56:18.572Z,3.18
2023-03-10T23:58:45.111Z,3.14
